Wetterdaten: Woche 12.06.17 - 18.06.17 (KW24)
Datum Zeit Temp. Aussen Temp. o. S. +5cm Feuchte Auss BlattFeu 1 Luftdruck Regen Sonnenschein Regendauer Solar Windben Empfang
12.06.2017 00:00 19,7 C 19,4 C 18,0 C 71 % 0 lf 1012,8 hPa 0,0 l/m 0,00 h 0,00 h 0 W/m 16,7 km/h (3 Bft) 96,81 %
12.06.2017 01:00 18,9 C 18,5 C 17,0 C 70 % 0 lf 1012,8 hPa 0,0 l/m 0,00 h 0,00 h 0 W/m 14,6 km/h (3 Bft) 96,31 %
12.06.2017 02:00 18,3 C 18,3 C 16,8 C 69 % 0 lf 1012,8 hPa 0,0 l/m 0,00 h 0,00 h 0 W/m 19,6 km/h (3 Bft) 95,92 %
12.06.2017 03:00 17,9 C 17,7 C 16,0 C 62 % 0 lf 1013,0 hPa 0,0 l/m 0,00 h 0,00 h 0 W/m 15,6 km/h (3 Bft) 97,15 %
12.06.2017 04:00 16,9 C 16,3 C 14,6 C 63 % 0 lf 1013,3 hPa 0,0 l/m 0,00 h 0,00 h 0 W/m 15,9 km/h (3 Bft) 97,53 %
12.06.2017 05:00 15,8 C 15,2 C 13,8 C 69 % 0 lf 1013,8 hPa 0,0 l/m 0,47 h 0,00 h 21 W/m 17,1 km/h (3 Bft) 94,16 %
12.06.2017 06:00 14,9 C 14,6 C 13,4 C 77 % 0 lf 1014,0 hPa 0,0 l/m 0,93 h 0,00 h 93 W/m 18,9 km/h (3 Bft) 97,51 %
12.06.2017 07:00 14,9 C 15,5 C 13,9 C 81 % 0 lf 1014,3 hPa 0,0 l/m 0,90 h 0,00 h 215 W/m 20,4 km/h (4 Bft) 97,59 %
12.06.2017 08:00 15,8 C 19,6 C 16,1 C 79 % 0 lf 1014,7 hPa 0,0 l/m 0,77 h 0,00 h 326 W/m 22,0 km/h (4 Bft) 94,52 %
12.06.2017 09:00 17,5 C 22,7 C 18,0 C 73 % 0 lf 1014,9 hPa 0,0 l/m 0,83 h 0,00 h 483 W/m 26,6 km/h (4 Bft) 97,45 %
12.06.2017 10:00 18,0 C 22,1 C 20,6 C 67 % 0 lf 1015,3 hPa 0,0 l/m 0,43 h 0,00 h 426 W/m 26,2 km/h (4 Bft) 98,66 %
12.06.2017 11:00 18,8 C 23,5 C 22,3 C 64 % 0 lf 1015,5 hPa 0,0 l/m 0,53 h 0,00 h 534 W/m 26,9 km/h (4 Bft) 93,36 %
12.06.2017 12:00 20,2 C 24,4 C 24,3 C 58 % 0 lf 1015,7 hPa 0,0 l/m 0,43 h 0,00 h 523 W/m 30,1 km/h (5 Bft) 97,44 %
12.06.2017 13:00 20,0 C 22,6 C 22,7 C 58 % 0 lf 1016,2 hPa 0,0 l/m 0,47 h 0,00 h 408 W/m 30,2 km/h (5 Bft) 96,83 %
12.06.2017 14:00 19,2 C 20,8 C 21,0 C 61 % 0 lf 1016,4 hPa 0,0 l/m 0,00 h 0,00 h 278 W/m 24,2 km/h (4 Bft) 96,24 %
12.06.2017 15:00 19,7 C 21,8 C 22,0 C 61 % 0 lf 1016,7 hPa 0,0 l/m 0,17 h 0,00 h 314 W/m 21,7 km/h (4 Bft) 95,25 %
12.06.2017 16:00 19,9 C 21,5 C 21,5 C 61 % 0 lf 1016,8 hPa 0,0 l/m 0,13 h 0,00 h 253 W/m 21,7 km/h (4 Bft) 97,33 %
12.06.2017 17:00 19,3 C 20,4 C 19,7 C 62 % 0 lf 1016,9 hPa 0,0 l/m 0,10 h 0,00 h 188 W/m 22,9 km/h (4 Bft) 96,40 %
12.06.2017 18:00 19,3 C 20,4 C 19,8 C 63 % 0 lf 1016,8 hPa 0,0 l/m 0,10 h 0,00 h 169 W/m 20,6 km/h (4 Bft) 95,50 %
12.06.2017 19:00 18,4 C 18,6 C 17,9 C 66 % 0 lf 1017,0 hPa 0,0 l/m 0,00 h 0,00 h 88 W/m 22,4 km/h (4 Bft) 96,59 %
12.06.2017 20:00 17,8 C 18,0 C 17,2 C 68 % 0 lf 1017,2 hPa 0,0 l/m 0,10 h 0,00 h 65 W/m 17,3 km/h (3 Bft) 98,30 %
12.06.2017 21:00 17,2 C 16,7 C 15,7 C 70 % 0 lf 1017,2 hPa 0,0 l/m 0,00 h 0,00 h 14 W/m 12,1 km/h (2 Bft) 94,67 %
12.06.2017 22:00 16,4 C 15,6 C 14,3 C 72 % 0 lf 1017,7 hPa 0,0 l/m 0,00 h 0,00 h 0 W/m 7,1 km/h (2 Bft) 96,70 %
12.06.2017 23:00 15,8 C 15,3 C 14,1 C 74 % 0 lf 1017,9 hPa 0,0 l/m 0,00 h 0,00 h 0 W/m 8,4 km/h (2 Bft) 97,22 %
13.06.2017 00:00 15,4 C 15,4 C 14,1 C 76 % 0 lf 1017,7 hPa 0,0 l/m 0,00 h 0,00 h 0 W/m 9,0 km/h (2 Bft) 96,17 %
13.06.2017 01:00 15,3 C 15,0 C 13,9 C 78 % 0 lf 1017,6 hPa 0,0 l/m 0,00 h 0,00 h 0 W/m 8,8 km/h (2 Bft) 96,08 %
13.06.2017 02:00 15,2 C 15,0 C 13,9 C 78 % 0 lf 1017,6 hPa 0,0 l/m 0,00 h 0,00 h 0 W/m 10,1 km/h (2 Bft) 97,29 %
13.06.2017 03:00 14,9 C 14,6 C 13,3 C 80 % 0 lf 1017,6 hPa 0,0 l/m 0,00 h 0,00 h 0 W/m 9,0 km/h (2 Bft) 94,80 %
13.06.2017 04:00 14,4 C 13,9 C 12,4 C 82 % 0 lf 1017,5 hPa 0,0 l/m 0,00 h 0,00 h 0 W/m 8,1 km/h (2 Bft) 99,40 %
13.06.2017 05:00 13,8 C 13,1 C 11,9 C 83 % 0 lf 1017,7 hPa 0,0 l/m 0,23 h 0,00 h 17 W/m 8,7 km/h (2 Bft) 94,45 %
13.06.2017 06:00 13,1 C 13,0 C 11,7 C 85 % 0 lf 1018,1 hPa 0,0 l/m 1,00 h 0,00 h 97 W/m 12,2 km/h (2 Bft) 96,23 %
13.06.2017 07:00 13,6 C 14,2 C 12,7 C 86 % 0 lf 1018,3 hPa 0,0 l/m 1,00 h 0,00 h 245 W/m 15,5 km/h (3 Bft) 97,65 %
13.06.2017 08:00 15,0 C 20,8 C 14,3 C 84 % 0 lf 1018,5 hPa 0,0 l/m 0,93 h 0,00 h 376 W/m 13,9 km/h (3 Bft) 96,23 %
13.06.2017 09:00 18,2 C 27,3 C 17,0 C 76 % 0 lf 1018,6 hPa 0,0 l/m 1,00 h 0,00 h 558 W/m 12,6 km/h (3 Bft) 94,45 %
13.06.2017 10:00 19,8 C 25,6 C 23,0 C 68 % 0 lf 1018,5 hPa 0,0 l/m 0,60 h 0,00 h 460 W/m 12,9 km/h (3 Bft) 99,15 %
13.06.2017 11:00 20,5 C 25,4 C 24,1 C 65 % 0 lf 1018,4 hPa 0,0 l/m 0,47 h 0,00 h 514 W/m 12,6 km/h (3 Bft) 96,22 %
13.06.2017 12:00 20,2 C 22,0 C 21,7 C 64 % 0 lf 1018,6 hPa 0,0 l/m 0,03 h 0,00 h 243 W/m 17,5 km/h (3 Bft) 95,69 %
13.06.2017 13:00 20,2 C 23,5 C 23,7 C 66 % 0 lf 1018,8 hPa 0,0 l/m 0,43 h 0,00 h 416 W/m 16,7 km/h (3 Bft) 98,22 %
13.06.2017 14:00 20,6 C 23,6 C 23,7 C 64 % 0 lf 1018,7 hPa 0,0 l/m 0,40 h 0,00 h 385 W/m 14,8 km/h (3 Bft) 96,37 %
13.06.2017 15:00 21,9 C 25,3 C 25,6 C 60 % 0 lf 1018,6 hPa 0,0 l/m 0,50 h 0,00 h 408 W/m 16,2 km/h (3 Bft) 95,30 %
13.06.2017 16:00 21,9 C 25,2 C 26,6 C 59 % 0 lf 1018,6 hPa 0,0 l/m 0,80 h 0,00 h 489 W/m 13,5 km/h (3 Bft) 96,80 %
13.06.2017 17:00 21,6 C 22,8 C 22,1 C 58 % 0 lf 1018,6 hPa 0,0 l/m 0,00 h 0,00 h 166 W/m 10,3 km/h (2 Bft) 98,15 %
13.06.2017 18:00 20,5 C 21,1 C 20,1 C 62 % 0 lf 1018,5 hPa 0,0 l/m 0,00 h 0,00 h 115 W/m 11,4 km/h (2 Bft) 94,36 %
13.06.2017 19:00 20,1 C 21,0 C 20,1 C 64 % 0 lf 1018,4 hPa 0,0 l/m 0,17 h 0,00 h 137 W/m 12,4 km/h (3 Bft) 95,73 %
13.06.2017 20:00 19,6 C 19,3 C 18,2 C 66 % 0 lf 1018,3 hPa 0,0 l/m 0,33 h 0,00 h 81 W/m 10,0 km/h (2 Bft) 97,36 %
13.06.2017 21:00 18,6 C 17,6 C 16,4 C 69 % 0 lf 1018,4 hPa 0,0 l/m 0,63 h 0,00 h 28 W/m 8,1 km/h (2 Bft) 96,52 %
13.06.2017 22:00 17,2 C 14,8 C 13,2 C 72 % 0 lf 1018,9 hPa 0,0 l/m 0,00 h 0,00 h 10 W/m 0,8 km/h (0 Bft) 93,52 %
13.06.2017 23:00 15,5 C 13,2 C 11,6 C 77 % 0 lf 1018,9 hPa 0,0 l/m 0,00 h 0,00 h 0 W/m 0,0 km/h (0 Bft) 98,93 %
14.06.2017 00:00 14,1 C 11,9 C 10,6 C 82 % 1 lf 1019,1 hPa 0,0 l/m 0,00 h 0,00 h 0 W/m 0,0 km/h (0 Bft) 95,53 %
14.06.2017 01:00 13,0 C 11,1 C 10,0 C 85 % 1 lf 1019,1 hPa 0,0 l/m 0,00 h 0,00 h 0 W/m 0,0 km/h (0 Bft) 97,01 %
14.06.2017 02:00 12,1 C 10,6 C 9,5 C 88 % 2 lf 1019,1 hPa 0,0 l/m 0,00 h 0,00 h 0 W/m 0,5 km/h (0 Bft) 95,95 %
14.06.2017 03:00 11,4 C 9,8 C 8,9 C 89 % 4 lf 1019,1 hPa 0,0 l/m 0,00 h 0,00 h 0 W/m 0,3 km/h (0 Bft) 96,01 %
14.06.2017 04:00 10,8 C 9,4 C 8,3 C 90 % 11 lf 1018,8 hPa 0,0 l/m 0,00 h 0,00 h 0 W/m 0,2 km/h (0 Bft) 97,13 %
14.06.2017 05:00 10,3 C 8,9 C 8,0 C 91 % 15 lf 1019,1 hPa 0,0 l/m 0,43 h 0,00 h 53 W/m 0,1 km/h (0 Bft) 96,51 %
14.06.2017 06:00 10,2 C 9,9 C 9,1 C 93 % 15 lf 1019,5 hPa 0,0 l/m 1,00 h 0,00 h 91 W/m 0,6 km/h (0 Bft) 97,46 %
14.06.2017 07:00 11,3 C 13,0 C 11,5 C 95 % 2 lf 1019,5 hPa 0,0 l/m 1,00 h 0,00 h 257 W/m 5,4 km/h (1 Bft) 94,52 %
14.06.2017 08:00 14,4 C 21,9 C 14,8 C 92 % 0 lf 1019,3 hPa 0,0 l/m 1,00 h 0,00 h 460 W/m 11,2 km/h (2 Bft) 97,08 %
14.06.2017 09:00 19,0 C 28,5 C 18,0 C 73 % 0 lf 1019,5 hPa 0,0 l/m 1,00 h 0,00 h 683 W/m 10,8 km/h (2 Bft) 97,25 %
14.06.2017 10:00 21,4 C 29,9 C 26,2 C 62 % 0 lf 1019,3 hPa 0,0 l/m 1,00 h 0,00 h 781 W/m 15,0 km/h (3 Bft) 95,55 %
14.06.2017 11:00 22,8 C 30,2 C 27,8 C 56 % 0 lf 1018,9 hPa 0,0 l/m 0,97 h 0,00 h 839 W/m 17,2 km/h (3 Bft) 96,94 %
14.06.2017 12:00 23,8 C 31,8 C 28,1 C 52 % 0 lf 1018,5 hPa 0,0 l/m 0,95 h 0,00 h 844 W/m 13,0 km/h (3 Bft) 96,05 %
14.06.2017 13:00 24,8 C 32,4 C 26,6 C 50 % 0 lf 1017,9 hPa 0,0 l/m 1,00 h 0,00 h 897 W/m 11,7 km/h (2 Bft) 96,30 %
14.06.2017 14:00 25,1 C 31,7 C 32,2 C 49 % 0 lf 1017,6 hPa 0,0 l/m 1,00 h 0,00 h 871 W/m 13,5 km/h (3 Bft) 97,51 %
14.06.2017 15:00 25,5 C 30,9 C 34,7 C 48 % 0 lf 1017,2 hPa 0,0 l/m 1,00 h 0,00 h 799 W/m 12,1 km/h (2 Bft) 95,77 %
14.06.2017 16:00 26,2 C 27,8 C 35,7 C 46 % 0 lf 1016,6 hPa 0,0 l/m 1,00 h 0,00 h 685 W/m 12,4 km/h (3 Bft) 97,32 %
14.06.2017 17:00 26,3 C 26,9 C 26,8 C 44 % 0 lf 1015,9 hPa 0,0 l/m 1,00 h 0,00 h 544 W/m 11,6 km/h (2 Bft) 95,99 %
14.06.2017 18:00 25,6 C 25,9 C 23,5 C 46 % 0 lf 1015,4 hPa 0,0 l/m 1,00 h 0,00 h 382 W/m 11,4 km/h (2 Bft) 95,83 %
14.06.2017 19:00 25,1 C 25,1 C 23,1 C 47 % 0 lf 1015,0 hPa 0,0 l/m 1,00 h 0,00 h 221 W/m 11,8 km/h (2 Bft) 98,53 %
14.06.2017 20:00 24,6 C 24,1 C 20,6 C 50 % 0 lf 1014,7 hPa 0,0 l/m 0,97 h 0,00 h 89 W/m 10,3 km/h (2 Bft) 94,95 %
14.06.2017 21:00 23,4 C 22,0 C 19,8 C 53 % 0 lf 1014,7 hPa 0,0 l/m 0,57 h 0,00 h 28 W/m 6,2 km/h (2 Bft) 96,73 %
14.06.2017 22:00 21,5 C 19,0 C 16,4 C 60 % 0 lf 1015,1 hPa 0,0 l/m 0,00 h 0,00 h 12 W/m 3,3 km/h (1 Bft) 97,86 %
14.06.2017 23:00 19,4 C 16,9 C 14,5 C 67 % 0 lf 1015,2 hPa 0,0 l/m 0,00 h 0,00 h 0 W/m 0,5 km/h (0 Bft) 95,38 %
15.06.2017 00:00 17,8 C 15,6 C 13,5 C 72 % 0 lf 1015,2 hPa 0,0 l/m 0,00 h 0,00 h 0 W/m 0,0 km/h (0 Bft) 95,76 %
15.06.2017 01:00 16,6 C 14,6 C 12,8 C 76 % 0 lf 1014,8 hPa 0,0 l/m 0,00 h 0,00 h 0 W/m 0,0 km/h (0 Bft) 98,15 %
15.06.2017 02:00 15,5 C 13,8 C 12,2 C 79 % 0 lf 1014,5 hPa 0,0 l/m 0,00 h 0,00 h 0 W/m 0,0 km/h (0 Bft) 95,88 %
15.06.2017 03:00 14,8 C 13,5 C 11,8 C 83 % 1 lf 1014,2 hPa 0,0 l/m 0,00 h 0,00 h 0 W/m 0,0 km/h (0 Bft) 95,58 %
15.06.2017 04:00 14,3 C 14,0 C 12,0 C 87 % 1 lf 1013,7 hPa 0,0 l/m 0,00 h 0,00 h 0 W/m 3,6 km/h (1 Bft) 97,37 %
15.06.2017 05:00 14,6 C 15,2 C 13,4 C 88 % 0 lf 1013,4 hPa 0,0 l/m 0,47 h 0,00 h 22 W/m 11,9 km/h (2 Bft) 95,87 %
15.06.2017 06:00 15,5 C 16,2 C 14,4 C 87 % 0 lf 1013,4 hPa 0,0 l/m 0,57 h 0,00 h 71 W/m 11,9 km/h (2 Bft) 97,87 %
15.06.2017 07:00 16,7 C 17,9 C 16,2 C 84 % 0 lf 1013,4 hPa 0,0 l/m 0,90 h 0,00 h 208 W/m 14,2 km/h (3 Bft) 95,63 %
15.06.2017 08:00 19,1 C 22,9 C 19,2 C 79 % 0 lf 1013,2 hPa 0,0 l/m 0,97 h 0,00 h 328 W/m 14,1 km/h (3 Bft) 96,44 %
15.06.2017 09:00 22,4 C 28,2 C 22,4 C 71 % 0 lf 1013,2 hPa 0,0 l/m 0,97 h 0,00 h 467 W/m 12,6 km/h (3 Bft) 97,30 %
15.06.2017 10:00 25,8 C 32,9 C 30,3 C 62 % 0 lf 1013,1 hPa 0,0 l/m 1,00 h 0,00 h 586 W/m 11,3 km/h (2 Bft) 95,37 %
15.06.2017 11:00 28,8 C 36,5 C 34,4 C 55 % 0 lf 1012,8 hPa 0,0 l/m 1,00 h 0,00 h 776 W/m 14,4 km/h (3 Bft) 97,94 %
15.06.2017 12:00 30,4 C 37,1 C 35,4 C 49 % 0 lf 1012,5 hPa 0,0 l/m 0,93 h 0,00 h 793 W/m 19,6 km/h (3 Bft) 96,58 %
15.06.2017 13:00 31,3 C 36,9 C 34,0 C 46 % 0 lf 1012,1 hPa 0,0 l/m 1,00 h 0,00 h 837 W/m 19,2 km/h (3 Bft) 97,44 %
15.06.2017 14:00 30,8 C 32,8 C 33,1 C 49 % 0 lf 1011,6 hPa 0,0 l/m 0,27 h 0,00 h 406 W/m 17,8 km/h (3 Bft) 94,41 %
15.06.2017 15:00 30,2 C 31,6 C 31,8 C 51 % 1 lf 1011,0 hPa 0,2 l/m 0,33 h 0,10 h 332 W/m 19,8 km/h (3 Bft) 94,94 %
15.06.2017 16:00 25,7 C 21,3 C 20,4 C 77 % 15 lf 1011,1 hPa 6,2 l/m 0,00 h 0,47 h 75 W/m 11,7 km/h (2 Bft) 98,27 %
15.06.2017 17:00 20,4 C 18,6 C 17,9 C 87 % 15 lf 1011,9 hPa 0,4 l/m 0,00 h 0,50 h 58 W/m 21,9 km/h (4 Bft) 97,22 %
15.06.2017 18:00 20,5 C 21,0 C 19,8 C 92 % 14 lf 1011,9 hPa 0,0 l/m 0,17 h 0,00 h 152 W/m 2,5 km/h (1 Bft) 94,41 %
15.06.2017 19:00 22,1 C 23,7 C 21,3 C 92 % 0 lf 1011,5 hPa 0,0 l/m 0,30 h 0,00 h 139 W/m 7,6 km/h (2 Bft) 98,23 %
15.06.2017 20:00 22,5 C 22,9 C 20,5 C 84 % 0 lf 1011,7 hPa 0,0 l/m 1,00 h 0,00 h 117 W/m 7,6 km/h (2 Bft) 98,72 %
15.06.2017 21:00 22,0 C 20,5 C 17,7 C 75 % 0 lf 1012,3 hPa 0,0 l/m 0,60 h 0,00 h 30 W/m 6,7 km/h (2 Bft) 92,24 %
15.06.2017 22:00 20,2 C 17,9 C 15,6 C 75 % 0 lf 1013,3 hPa 0,0 l/m 0,00 h 0,00 h 10 W/m 4,8 km/h (1 Bft) 98,94 %
15.06.2017 23:00 18,4 C 16,5 C 14,4 C 77 % 0 lf 1013,9 hPa 0,0 l/m 0,00 h 0,00 h 0 W/m 2,9 km/h (1 Bft) 96,94 %
16.06.2017 00:00 17,2 C 16,5 C 14,6 C 80 % 0 lf 1014,5 hPa 0,0 l/m 0,00 h 0,00 h 0 W/m 10,3 km/h (2 Bft) 95,12 %
16.06.2017 01:00 17,1 C 16,7 C 14,8 C 80 % 0 lf 1014,8 hPa 0,0 l/m 0,00 h 0,00 h 0 W/m 15,6 km/h (3 Bft) 96,15 %
16.06.2017 02:00 16,5 C 16,1 C 14,4 C 81 % 0 lf 1014,9 hPa 0,0 l/m 0,00 h 0,00 h 0 W/m 13,5 km/h (3 Bft) 98,01 %
16.06.2017 03:00 16,2 C 15,8 C 14,2 C 83 % 0 lf 1015,4 hPa 0,0 l/m 0,00 h 0,00 h 0 W/m 12,7 km/h (3 Bft) 95,31 %
16.06.2017 04:00 15,5 C 15,0 C 13,5 C 84 % 0 lf 1015,7 hPa 0,0 l/m 0,00 h 0,00 h 0 W/m 11,3 km/h (2 Bft) 97,68 %
16.06.2017 05:00 15,2 C 15,0 C 13,5 C 86 % 0 lf 1016,2 hPa 0,0 l/m 0,20 h 0,00 h 18 W/m 15,3 km/h (3 Bft) 94,70 %
16.06.2017 06:00 14,9 C 15,1 C 13,3 C 87 % 0 lf 1016,8 hPa 0,0 l/m 1,03 h 0,00 h 109 W/m 15,4 km/h (3 Bft) 97,33 %
16.06.2017 07:00 15,3 C 16,0 C 14,1 C 88 % 0 lf 1017,1 hPa 0,0 l/m 1,00 h 0,00 h 260 W/m 18,7 km/h (3 Bft) 97,74 %
16.06.2017 08:00 16,5 C 20,4 C 15,9 C 85 % 0 lf 1017,7 hPa 0,0 l/m 0,70 h 0,00 h 289 W/m 19,0 km/h (3 Bft) 95,54 %
16.06.2017 09:00 18,9 C 26,6 C 18,4 C 75 % 0 lf 1018,3 hPa 0,0 l/m 0,93 h 0,00 h 594 W/m 21,4 km/h (4 Bft) 95,38 %
16.06.2017 10:00 20,1 C 24,7 C 21,9 C 67 % 0 lf 1018,7 hPa 0,0 l/m 0,47 h 0,00 h 463 W/m 22,8 km/h (4 Bft) 98,81 %
16.06.2017 11:00 20,0 C 22,8 C 21,5 C 66 % 0 lf 1019,4 hPa 0,0 l/m 0,13 h 0,00 h 314 W/m 21,1 km/h (4 Bft) 95,65 %
16.06.2017 12:00 20,0 C 23,3 C 21,9 C 66 % 0 lf 1019,8 hPa 0,0 l/m 0,40 h 0,00 h 384 W/m 22,8 km/h (4 Bft) 95,49 %
16.06.2017 13:00 19,8 C 22,0 C 21,0 C 66 % 0 lf 1020,3 hPa 0,0 l/m 0,07 h 0,00 h 308 W/m 21,8 km/h (4 Bft) 96,96 %
16.06.2017 14:00 20,7 C 24,0 C 23,4 C 64 % 0 lf 1020,6 hPa 0,0 l/m 0,43 h 0,00 h 407 W/m 22,2 km/h (4 Bft) 97,23 %
16.06.2017 15:00 20,5 C 22,3 C 21,7 C 61 % 0 lf 1020,9 hPa 0,0 l/m 0,07 h 0,00 h 284 W/m 27,7 km/h (4 Bft) 96,62 %
16.06.2017 16:00 20,0 C 21,8 C 21,3 C 61 % 0 lf 1021,4 hPa 0,0 l/m 0,08 h 0,00 h 294 W/m 30,7 km/h (5 Bft) 97,51 %
16.06.2017 17:00 19,7 C 20,8 C 20,6 C 61 % 0 lf 1021,8 hPa 0,0 l/m 0,00 h 0,00 h 235 W/m 26,4 km/h (4 Bft) 98,68 %
16.06.2017 18:00 18,8 C 19,3 C 18,5 C 64 % 0 lf 1022,3 hPa 0,0 l/m 0,00 h 0,00 h 153 W/m 21,7 km/h (4 Bft) 94,42 %
16.06.2017 19:00 18,3 C 19,2 C 18,4 C 65 % 0 lf 1022,7 hPa 0,0 l/m 0,87 h 0,00 h 195 W/m 21,0 km/h (4 Bft) 96,51 %
16.06.2017 20:00 17,9 C 18,0 C 17,0 C 66 % 0 lf 1023,1 hPa 0,0 l/m 0,60 h 0,00 h 89 W/m 18,1 km/h (3 Bft) 97,84 %
16.06.2017 21:00 17,1 C 16,7 C 15,5 C 68 % 0 lf 1023,7 hPa 0,0 l/m 0,37 h 0,00 h 26 W/m 13,7 km/h (3 Bft) 95,15 %
16.06.2017 22:00 15,9 C 14,1 C 12,5 C 69 % 0 lf 1024,2 hPa 0,0 l/m 0,00 h 0,00 h 11 W/m 7,3 km/h (2 Bft) 95,23 %
16.06.2017 23:00 14,3 C 12,5 C 11,0 C 74 % 0 lf 1024,4 hPa 0,0 l/m 0,00 h 0,00 h 0 W/m 5,7 km/h (1 Bft) 99,29 %
17.06.2017 00:00 13,1 C 11,7 C 10,3 C 78 % 0 lf 1024,5 hPa 0,0 l/m 0,00 h 0,00 h 0 W/m 4,8 km/h (1 Bft) 95,23 %
17.06.2017 01:00 12,2 C 11,2 C 9,9 C 81 % 0 lf 1024,5 hPa 0,0 l/m 0,00 h 0,00 h 0 W/m 4,5 km/h (1 Bft) 96,15 %
17.06.2017 02:00 11,6 C 11,0 C 9,8 C 85 % 0 lf 1024,5 hPa 0,0 l/m 0,00 h 0,00 h 0 W/m 6,4 km/h (2 Bft) 96,87 %
17.06.2017 03:00 11,4 C 11,4 C 10,2 C 88 % 0 lf 1024,5 hPa 0,0 l/m 0,00 h 0,00 h 0 W/m 7,5 km/h (2 Bft) 94,95 %
17.06.2017 04:00 12,0 C 12,7 C 11,8 C 89 % 0 lf 1024,5 hPa 0,0 l/m 0,00 h 0,00 h 0 W/m 5,6 km/h (1 Bft) 98,17 %
17.06.2017 05:00 12,8 C 13,6 C 12,5 C 88 % 0 lf 1024,4 hPa 0,0 l/m 0,20 h 0,00 h 20 W/m 6,6 km/h (2 Bft) 96,30 %
17.06.2017 06:00 13,8 C 14,4 C 13,3 C 87 % 0 lf 1024,5 hPa 0,0 l/m 0,00 h 0,00 h 34 W/m 8,9 km/h (2 Bft) 95,09 %
17.06.2017 07:00 14,5 C 15,3 C 14,1 C 86 % 0 lf 1024,6 hPa 0,0 l/m 0,00 h 0,00 h 59 W/m 6,0 km/h (2 Bft) 97,28 %
17.06.2017 08:00 15,1 C 15,9 C 15,1 C 85 % 0 lf 1024,6 hPa 0,0 l/m 0,00 h 0,00 h 76 W/m 6,4 km/h (2 Bft) 98,18 %
17.06.2017 09:00 16,0 C 17,9 C 17,4 C 84 % 0 lf 1024,8 hPa 0,0 l/m 0,17 h 0,00 h 269 W/m 7,5 km/h (2 Bft) 92,97 %
17.06.2017 10:00 17,7 C 20,0 C 19,3 C 80 % 0 lf 1024,9 hPa 0,0 l/m 0,30 h 0,00 h 409 W/m 10,9 km/h (2 Bft) 98,50 %
17.06.2017 11:00 19,5 C 23,1 C 22,1 C 77 % 0 lf 1024,9 hPa 0,0 l/m 0,37 h 0,00 h 409 W/m 10,6 km/h (2 Bft) 97,48 %
17.06.2017 12:00 21,3 C 26,1 C 24,8 C 73 % 0 lf 1024,9 hPa 0,0 l/m 0,93 h 0,00 h 477 W/m 11,2 km/h (2 Bft) 94,91 %
17.06.2017 13:00 21,6 C 22,4 C 21,2 C 72 % 0 lf 1024,8 hPa 0,0 l/m 0,00 h 0,00 h 137 W/m 10,3 km/h (2 Bft) 97,51 %
17.06.2017 14:00 20,9 C 22,3 C 21,4 C 76 % 0 lf 1025,0 hPa 0,0 l/m 0,00 h 0,00 h 183 W/m 11,7 km/h (2 Bft) 96,66 %
17.06.2017 15:00 21,2 C 23,8 C 22,8 C 75 % 0 lf 1025,1 hPa 0,0 l/m 0,10 h 0,00 h 282 W/m 12,8 km/h (3 Bft) 96,07 %
17.06.2017 16:00 22,7 C 26,5 C 25,8 C 72 % 0 lf 1024,6 hPa 0,0 l/m 0,87 h 0,00 h 397 W/m 12,7 km/h (3 Bft) 96,10 %
17.06.2017 17:00 23,3 C 25,6 C 24,8 C 68 % 0 lf 1024,4 hPa 0,0 l/m 0,77 h 0,00 h 329 W/m 13,0 km/h (3 Bft) 97,57 %
17.06.2017 18:00 23,2 C 24,6 C 23,8 C 69 % 0 lf 1024,3 hPa 0,0 l/m 0,23 h 0,00 h 210 W/m 13,3 km/h (3 Bft) 97,22 %
17.06.2017 19:00 22,8 C 23,5 C 22,3 C 70 % 0 lf 1024,2 hPa 0,0 l/m 0,00 h 0,00 h 109 W/m 10,8 km/h (2 Bft) 94,80 %
17.06.2017 20:00 22,2 C 22,2 C 20,9 C 73 % 0 lf 1024,2 hPa 0,0 l/m 0,00 h 0,00 h 44 W/m 6,4 km/h (2 Bft) 97,65 %
17.06.2017 21:00 21,7 C 21,1 C 19,6 C 76 % 0 lf 1024,3 hPa 0,0 l/m 0,07 h 0,00 h 20 W/m 1,7 km/h (1 Bft) 98,22 %
17.06.2017 22:00 21,1 C 20,1 C 18,6 C 78 % 0 lf 1024,5 hPa 0,0 l/m 0,00 h 0,00 h 10 W/m 0,5 km/h (0 Bft) 93,38 %
17.06.2017 23:00 20,5 C 19,7 C 18,3 C 81 % 0 lf 1024,8 hPa 0,0 l/m 0,00 h 0,00 h 0 W/m 0,9 km/h (0 Bft) 98,71 %
18.06.2017 00:00 20,1 C 19,3 C 18,1 C 83 % 0 lf 1024,9 hPa 0,0 l/m 0,00 h 0,00 h 0 W/m 4,3 km/h (1 Bft) 96,82 %
18.06.2017 01:00 19,3 C 17,1 C 15,2 C 84 % 1 lf 1024,8 hPa 0,0 l/m 0,00 h 0,00 h 0 W/m 0,5 km/h (0 Bft) 95,44 %
18.06.2017 02:00 17,7 C 15,5 C 13,8 C 87 % 2 lf 1024,6 hPa 0,0 l/m 0,00 h 0,00 h 0 W/m 0,0 km/h (0 Bft) 95,87 %
18.06.2017 03:00 16,4 C 14,5 C 13,1 C 89 % 7 lf 1024,6 hPa 0,0 l/m 0,00 h 0,00 h 0 W/m 0,3 km/h (0 Bft) 97,08 %
18.06.2017 04:00 15,5 C 13,8 C 12,5 C 91 % 15 lf 1024,5 hPa 0,0 l/m 0,00 h 0,00 h 0 W/m 0,4 km/h (0 Bft) 96,50 %
18.06.2017 05:00 14,8 C 13,3 C 12,2 C 92 % 15 lf 1024,5 hPa 0,0 l/m 0,43 h 0,00 h 23 W/m 0,3 km/h (0 Bft) 98,01 %
18.06.2017 06:00 14,6 C 14,3 C 12,9 C 94 % 15 lf 1024,4 hPa 0,0 l/m 1,00 h 0,00 h 104 W/m 0,2 km/h (0 Bft) 94,73 %
18.06.2017 07:00 15,4 C 16,3 C 14,4 C 96 % 12 lf 1024,5 hPa 0,0 l/m 1,00 h 0,00 h 258 W/m 1,9 km/h (1 Bft) 96,37 %
18.06.2017 08:00 17,4 C 23,6 C 17,6 C 97 % 0 lf 1024,7 hPa 0,0 l/m 1,00 h 0,00 h 417 W/m 8,3 km/h (2 Bft) 98,93 %
18.06.2017 09:00 21,7 C 29,0 C 20,0 C 81 % 0 lf 1024,8 hPa 0,0 l/m 0,93 h 0,00 h 545 W/m 10,6 km/h (2 Bft) 94,87 %
18.06.2017 10:00 23,8 C 29,9 C 25,5 C 70 % 0 lf 1024,6 hPa 0,0 l/m 0,57 h 0,00 h 478 W/m 7,2 km/h (2 Bft) 96,37 %
18.06.2017 11:00 24,7 C 31,9 C 30,1 C 67 % 0 lf 1024,3 hPa 0,0 l/m 0,83 h 0,00 h 832 W/m 10,7 km/h (2 Bft) 99,07 %
18.06.2017 12:00 26,4 C 33,6 C 29,8 C 61 % 0 lf 1024,1 hPa 0,0 l/m 0,87 h 0,00 h 827 W/m 10,7 km/h (2 Bft) 95,15 %
18.06.2017 13:00 27,5 C 34,6 C 30,2 C 58 % 0 lf 1023,8 hPa 0,0 l/m 0,97 h 0,00 h 956 W/m 14,2 km/h (3 Bft) 95,59 %
18.06.2017 14:00 27,0 C 31,6 C 30,3 C 59 % 0 lf 1023,4 hPa 0,0 l/m 0,80 h 0,00 h 555 W/m 12,6 km/h (3 Bft) 97,65 %
18.06.2017 15:00 27,1 C 31,3 C 32,0 C 58 % 0 lf 1022,9 hPa 0,0 l/m 0,60 h 0,00 h 565 W/m 10,3 km/h (2 Bft) 98,22 %
18.06.2017 16:00 27,6 C 29,3 C 34,2 C 56 % 0 lf 1022,4 hPa 0,0 l/m 0,60 h 0,00 h 550 W/m 13,2 km/h (3 Bft) 94,66 %
18.06.2017 17:00 28,1 C 29,1 C 28,3 C 55 % 0 lf 1021,9 hPa 0,0 l/m 0,53 h 0,00 h 437 W/m 12,7 km/h (3 Bft) 96,94 %
18.06.2017 18:00 27,6 C 27,9 C 26,2 C 55 % 0 lf 1021,5 hPa 0,0 l/m 0,70 h 0,00 h 338 W/m 13,3 km/h (3 Bft) 97,56 %
18.06.2017 19:00 27,1 C 27,0 C 25,3 C 57 % 0 lf 1021,1 hPa 0,0 l/m 0,83 h 0,00 h 248 W/m 10,1 km/h (2 Bft) 95,94 %
18.06.2017 20:00 26,7 C 26,2 C 24,2 C 59 % 0 lf 1020,8 hPa 0,0 l/m 1,00 h 0,00 h 109 W/m 11,4 km/h (2 Bft) 95,15 %
18.06.2017 21:00 25,7 C 24,3 C 21,9 C 62 % 0 lf 1020,8 hPa 0,0 l/m 0,67 h 0,00 h 27 W/m 8,7 km/h (2 Bft) 98,93 %
18.06.2017 22:00 24,1 C 22,3 C 19,8 C 67 % 0 lf 1020,9 hPa 0,0 l/m 0,00 h 0,00 h 10 W/m 7,1 km/h (2 Bft) 94,43 %
18.06.2017 23:00 22,6 C 21,1 C 18,6 C 72 % 0 lf 1021,0 hPa 0,0 l/m 0,00 h 0,00 h 0 W/m 7,3 km/h (2 Bft) 95,66 %
Min-Datum _ 14.06.17 14.06.17 14.06.17 14.06.17 12.06.17 15.06.17 - - - - 13.06.17 15.06.17
_ Min-Zeit 06:10 04:56 04:46 16:42 00:00 16:28 - - - - 22:12 14:04
Minimum _ 10,0 C 8,9 C 7,8 C 44 % 0 lf 1010,4 hPa - - - - 0,0 km/h (0 Bft) 65,96 %
Max-Datum _ 15.06.17 15.06.17 18.06.17 18.06.17 14.06.17 17.06.17 15.06.17 14.06.17 15.06.17 18.06.17 15.06.17 12.06.17
_ Max-Zeit 13:50 11:24 16:40 08:32 05:12 14:58 16:50 12:06 15:54 13:50 17:18 00:02
Maximum _ 31,7 C 38,9 C 38,3 C 98 % 15 lf 1025,2 hPa 6,2 l/m 0,08 h 0,03 h 1199 W/m 52,3 km/h
SW (7 Bft)
100,00 %
Durchschnitt _ 19,3 C 20,6 C 19,0 C 72 % 1 lf 1018,8 hPa #6,8 l/m #65:56 h #1:04 h 306 W/m 11,7 km/h (2 Bft) 96,51 %
© 2017 W. Hausmann